createdAt,value
2022-10-05T00:00:33.660Z,3.17
2022-10-05T00:03:10.727Z,3.20
2022-10-05T00:05:39.008Z,3.13
2022-10-05T00:08:17.301Z,3.17
2022-10-05T00:10:46.373Z,2.90
2022-10-05T00:13:24.201Z,3.05
2022-10-05T00:15:58.309Z,3.03
2022-10-05T00:18:27.269Z,3.58
2022-10-05T00:20:55.260Z,2.78
2022-10-05T00:23:26.366Z,2.80
2022-10-05T00:25:53.527Z,3.00
2022-10-05T00:28:28.189Z,3.05
2022-10-05T00:30:59.452Z,2.67
2022-10-05T00:33:28.327Z,2.70
2022-10-05T00:35:55.871Z,2.85
2022-10-05T00:38:23.661Z,2.80
2022-10-05T00:41:16.914Z,3.10
2022-10-05T00:44:05.822Z,2.75
2022-10-05T00:46:57.511Z,3.20
2022-10-05T00:49:43.237Z,3.20
2022-10-05T00:52:49.473Z,3.40
2022-10-05T00:58:08.335Z,3.22
2022-10-05T01:00:50.281Z,2.78
2022-10-05T01:03:38.308Z,3.20
2022-10-05T01:06:23.510Z,3.17
2022-10-05T01:09:15.373Z,3.67
2022-10-05T01:11:54.507Z,3.00
2022-10-05T01:14:45.961Z,2.97
2022-10-05T01:17:24.724Z,2.80
2022-10-05T01:20:27.305Z,2.90
2022-10-05T01:23:16.148Z,3.35
2022-10-05T01:25:49.628Z,2.88
2022-10-05T01:28:28.602Z,3.42
2022-10-05T01:31:33.038Z,3.88
2022-10-05T01:34:11.662Z,3.67
2022-10-05T01:36:45.100Z,3.67
2022-10-05T01:39:33.739Z,3.28
2022-10-05T01:42:13.164Z,2.90
2022-10-05T01:44:48.840Z,2.90
2022-10-05T01:47:44.793Z,3.55
2022-10-05T01:50:44.087Z,3.50
2022-10-05T01:53:40.372Z,2.95
2022-10-05T01:56:30.775Z,3.17
2022-10-05T01:59:24.629Z,3.50
2022-10-05T02:02:01.652Z,3.03
2022-10-05T02:05:02.309Z,2.83
2022-10-05T02:07:46.060Z,2.78
2022-10-05T02:10:19.141Z,3.15
2022-10-05T02:12:51.597Z,2.30
2022-10-05T02:15:26.554Z,2.85
2022-10-05T02:17:59.905Z,3.00
2022-10-05T02:20:33.609Z,2.50
2022-10-05T02:23:09.805Z,2.58
2022-10-05T02:25:39.988Z,2.97
2022-10-05T02:28:16.941Z,2.72
2022-10-05T02:31:11.856Z,2.92
2022-10-05T02:33:39.108Z,2.60
2022-10-05T02:36:35.262Z,2.60
2022-10-05T02:39:06.432Z,2.90
2022-10-05T02:41:33.541Z,3.13
2022-10-05T02:44:32.331Z,3.90
2022-10-05T02:46:59.720Z,3.60
2022-10-05T02:50:00.808Z,3.45
2022-10-05T02:52:44.337Z,3.20
2022-10-05T02:55:35.056Z,3.10
2022-10-05T02:58:08.443Z,3.13
2022-10-05T03:01:05.163Z,3.63
2022-10-05T03:03:45.092Z,3.40
2022-10-05T03:06:35.337Z,3.17
2022-10-05T03:09:05.566Z,2.95
2022-10-05T03:11:51.853Z,3.10
2022-10-05T03:14:42.597Z,3.50
2022-10-05T03:17:15.817Z,2.97
2022-10-05T03:20:03.556Z,3.13
2022-10-05T03:22:51.383Z,3.30
2022-10-05T03:25:53.994Z,3.30
2022-10-05T03:28:40.157Z,3.42
2022-10-05T03:31:31.606Z,3.50
2022-10-05T03:34:22.162Z,4.13
2022-10-05T03:36:55.438Z,4.20
2022-10-05T03:39:37.685Z,4.20
2022-10-05T03:42:09.585Z,4.07
2022-10-05T03:44:55.418Z,4.25
2022-10-05T03:47:51.717Z,4.32
2022-10-05T03:50:19.212Z,4.55
2022-10-05T03:52:56.824Z,4.05
2022-10-05T03:55:46.323Z,4.47
2022-10-05T03:58:26.351Z,4.38
2022-10-05T04:00:59.199Z,4.18
2022-10-05T04:03:35.018Z,4.43
2022-10-05T04:06:14.112Z,4.93
2022-10-05T04:09:03.054Z,4.22
2022-10-05T04:11:37.051Z,4.70
2022-10-05T04:14:16.220Z,5.10
2022-10-05T04:16:58.549Z,5.72
2022-10-05T04:19:45.029Z,5.05
2022-10-05T04:22:22.804Z,5.13
2022-10-05T04:25:01.533Z,4.60
2022-10-05T04:27:39.807Z,5.47
2022-10-05T04:30:19.543Z,5.78
2022-10-05T04:32:58.199Z,5.00
2022-10-05T04:35:52.598Z,5.20
2022-10-05T04:38:38.990Z,4.70
2022-10-05T04:41:28.099Z,5.22
2022-10-05T04:44:07.673Z,5.70
2022-10-05T04:47:03.549Z,5.28
2022-10-05T04:49:55.542Z,6.85
2022-10-05T04:52:41.306Z,6.85
2022-10-05T04:55:31.834Z,6.28
2022-10-05T04:58:42.535Z,7.40
2022-10-05T05:01:48.328Z,7.20
2022-10-05T05:04:40.660Z,7.00
2022-10-05T05:07:37.350Z,7.60
2022-10-05T05:10:33.050Z,6.93
2022-10-05T05:13:31.093Z,5.95
2022-10-05T05:16:27.621Z,6.78
2022-10-05T05:19:13.238Z,6.28
2022-10-05T05:21:59.079Z,6.15
2022-10-05T05:24:39.470Z,5.85
2022-10-05T05:27:38.949Z,6.38
2022-10-05T05:30:22.090Z,6.28
2022-10-05T05:33:03.479Z,6.70
2022-10-05T05:35:57.968Z,6.68
2022-10-05T05:38:50.621Z,7.05
2022-10-05T05:41:39.588Z,7.93
2022-10-05T05:44:28.212Z,7.43
2022-10-05T05:47:13.662Z,7.63
2022-10-05T05:50:09.340Z,8.05
2022-10-05T05:52:47.681Z,7.97
2022-10-05T05:55:33.371Z,6.72
2022-10-05T05:58:14.352Z,7.88
2022-10-05T06:01:20.206Z,6.38
2022-10-05T06:03:59.608Z,7.38
2022-10-05T06:06:38.549Z,8.40
2022-10-05T06:09:24.184Z,8.30
2022-10-05T06:12:14.630Z,8.13
2022-10-05T06:15:26.096Z,9.15
2022-10-05T06:17:57.460Z,8.35
2022-10-05T06:20:39.669Z,9.07
2022-10-05T06:23:18.884Z,8.43
2022-10-05T06:26:09.749Z,9.07
2022-10-05T06:28:38.694Z,7.38
2022-10-05T06:31:30.024Z,8.90
2022-10-05T06:34:05.776Z,8.23
2022-10-05T06:36:59.434Z,8.07
2022-10-05T06:39:47.248Z,7.82
2022-10-05T06:42:32.677Z,6.60
2022-10-05T06:45:44.886Z,7.18
2022-10-05T06:48:36.254Z,6.57
2022-10-05T06:51:46.706Z,6.70
2022-10-05T06:54:26.049Z,5.80
2022-10-05T06:57:17.282Z,5.80
2022-10-05T06:59:44.484Z,5.70
2022-10-05T07:02:29.812Z,4.82
2022-10-05T07:05:39.156Z,4.85
2022-10-05T07:08:15.855Z,5.05
2022-10-05T07:11:05.520Z,5.05
2022-10-05T07:13:39.469Z,5.40
2022-10-05T07:16:10.461Z,8.10
2022-10-05T07:18:44.077Z,10.77
2022-10-05T07:21:14.570Z,9.23
2022-10-05T07:23:46.413Z,6.70
2022-10-05T07:26:33.247Z,7.63
2022-10-05T07:29:20.343Z,8.38
2022-10-05T07:32:12.383Z,8.38
2022-10-05T07:34:48.101Z,7.82
2022-10-05T07:37:55.719Z,6.55
2022-10-05T07:40:58.605Z,5.03
2022-10-05T07:44:05.014Z,5.10
2022-10-05T07:46:45.890Z,4.50
2022-10-05T07:49:39.522Z,4.57
2022-10-05T07:52:14.185Z,4.30
2022-10-05T07:55:00.278Z,4.40
2022-10-05T07:57:51.940Z,4.53
2022-10-05T08:00:20.722Z,4.43
2022-10-05T08:03:14.897Z,4.22
2022-10-05T08:05:47.093Z,3.97
2022-10-05T08:08:31.674Z,4.50
2022-10-05T08:11:11.293Z,4.90
2022-10-05T08:13:41.742Z,3.92
2022-10-05T08:16:15.674Z,4.25
2022-10-05T08:18:51.289Z,4.07
2022-10-05T08:21:27.971Z,3.63
2022-10-05T08:23:58.280Z,3.30
2022-10-05T08:27:02.820Z,2.80
2022-10-05T08:29:37.587Z,3.28
2022-10-05T08:32:26.651Z,3.40
2022-10-05T08:35:12.699Z,3.20
2022-10-05T08:37:42.520Z,3.22
2022-10-05T08:40:18.938Z,3.50
2022-10-05T08:43:10.452Z,3.42
2022-10-05T08:45:49.768Z,3.30
2022-10-05T08:48:23.322Z,2.95
2022-10-05T08:50:59.612Z,3.65
2022-10-05T08:54:02.356Z,2.83
2022-10-05T08:56:35.446Z,2.97
2022-10-05T08:59:17.874Z,3.38
2022-10-05T09:02:23.380Z,3.00
2022-10-05T09:05:21.174Z,2.40
2022-10-05T09:08:27.305Z,3.30
2022-10-05T09:11:19.388Z,2.40
2022-10-05T09:14:17.577Z,2.75
2022-10-05T09:16:51.642Z,3.75
2022-10-05T09:19:52.941Z,3.72
2022-10-05T09:22:54.796Z,3.10
2022-10-05T09:25:58.036Z,3.58
2022-10-05T09:28:40.384Z,2.70
2022-10-05T09:31:19.589Z,2.40
2022-10-05T09:34:13.257Z,2.65
2022-10-05T09:37:02.935Z,2.53
2022-10-05T09:39:36.190Z,2.35
2022-10-05T09:42:28.920Z,2.00
2022-10-05T09:45:21.566Z,2.15
2022-10-05T09:48:10.217Z,1.60
2022-10-05T09:50:41.845Z,2.33
2022-10-05T09:53:38.808Z,2.00
2022-10-05T09:59:13.384Z,2.00
2022-10-05T10:02:35.217Z,1.83
2022-10-05T10:05:09.537Z,2.10
2022-10-05T10:08:05.857Z,1.63
2022-10-05T10:10:53.034Z,1.80
2022-10-05T10:13:43.246Z,1.85
2022-10-05T10:16:27.876Z,2.30
2022-10-05T10:19:20.077Z,2.30
2022-10-05T10:21:56.349Z,2.70
2022-10-05T10:24:57.325Z,2.03
2022-10-05T10:27:44.654Z,2.50
2022-10-05T10:30:41.279Z,2.30
2022-10-05T10:33:21.141Z,2.15
2022-10-05T10:36:13.775Z,2.25
2022-10-05T10:38:50.377Z,1.77
2022-10-05T10:41:52.609Z,2.30
2022-10-05T10:44:35.029Z,1.92
2022-10-05T10:47:13.675Z,1.73
2022-10-05T10:50:14.835Z,1.80
2022-10-05T10:53:02.002Z,2.13
2022-10-05T10:55:48.072Z,2.20
2022-10-05T10:58:37.010Z,2.05
2022-10-05T11:01:29.361Z,1.95
2022-10-05T11:04:09.944Z,1.90
2022-10-05T11:07:03.080Z,2.20
2022-10-05T11:09:34.854Z,2.22
2022-10-05T11:12:22.153Z,2.03
2022-10-05T11:15:11.181Z,1.95
2022-10-05T11:17:59.965Z,1.80
2022-10-05T11:20:39.291Z,2.30
2022-10-05T11:23:25.345Z,2.20
2022-10-05T11:26:10.644Z,2.00
2022-10-05T11:29:18.095Z,2.20
2022-10-05T11:32:29.990Z,2.00
2022-10-05T11:35:00.136Z,1.95
2022-10-05T11:37:46.367Z,2.03
2022-10-05T11:40:33.427Z,1.70
2022-10-05T11:43:22.971Z,2.00
2022-10-05T11:46:08.582Z,2.17
2022-10-05T11:48:54.433Z,1.73
2022-10-05T11:51:35.052Z,1.73
2022-10-05T11:54:10.013Z,1.63
2022-10-05T11:56:40.801Z,2.00
2022-10-05T11:59:35.447Z,1.60
2022-10-05T12:02:48.437Z,1.63
2022-10-05T12:05:42.155Z,1.95
2022-10-05T12:08:17.150Z,1.75
2022-10-05T12:10:58.866Z,2.10
2022-10-05T12:13:51.566Z,2.10
2022-10-05T12:17:01.309Z,1.73
2022-10-05T12:19:44.334Z,1.70
2022-10-05T12:22:49.791Z,2.00
2022-10-05T12:25:37.953Z,1.70
2022-10-05T12:28:11.491Z,1.50
2022-10-05T12:30:57.933Z,1.60
2022-10-05T12:33:41.204Z,1.52
2022-10-05T12:36:15.283Z,1.60
2022-10-05T12:39:17.272Z,1.42
2022-10-05T12:41:54.924Z,1.50
2022-10-05T12:44:50.158Z,1.52
2022-10-05T12:47:39.081Z,1.73
2022-10-05T12:50:12.353Z,1.80
2022-10-05T12:53:06.109Z,2.00
2022-10-05T12:55:42.458Z,1.70
2022-10-05T12:58:37.294Z,1.67
2022-10-05T13:01:19.137Z,1.80
2022-10-05T13:04:04.091Z,1.83
2022-10-05T13:06:40.135Z,2.33
2022-10-05T13:09:30.592Z,1.80
2022-10-05T13:12:04.242Z,1.60
2022-10-05T13:14:53.842Z,1.80
2022-10-05T13:17:23.986Z,1.80
2022-10-05T13:20:25.198Z,1.92
2022-10-05T13:23:18.590Z,1.70
2022-10-05T13:26:11.077Z,1.88
2022-10-05T13:28:50.713Z,1.67
2022-10-05T13:31:27.144Z,2.03
2022-10-05T13:34:17.949Z,1.80
2022-10-05T13:37:31.972Z,2.25
2022-10-05T13:40:25.041Z,1.90
2022-10-05T13:43:11.937Z,2.08
2022-10-05T13:45:52.566Z,2.15
2022-10-05T13:49:08.453Z,2.10
2022-10-05T13:52:10.891Z,2.00
2022-10-05T13:55:12.904Z,1.75
2022-10-05T13:57:59.899Z,2.08
2022-10-05T14:00:28.101Z,1.70
2022-10-05T14:02:57.930Z,1.75
2022-10-05T14:05:31.360Z,1.65
2022-10-05T14:08:04.330Z,2.00
2022-10-05T14:10:38.782Z,2.22
2022-10-05T14:13:43.535Z,2.33
2022-10-05T14:16:13.886Z,2.50
2022-10-05T14:18:55.303Z,2.42
2022-10-05T14:21:30.492Z,2.20
2022-10-05T14:24:44.616Z,2.28
2022-10-05T14:27:22.961Z,2.00
2022-10-05T14:30:13.311Z,2.10
2022-10-05T14:32:59.272Z,1.98
2022-10-05T14:35:30.629Z,1.92
2022-10-05T14:38:02.402Z,2.15
2022-10-05T14:40:34.287Z,2.00
2022-10-05T14:43:14.529Z,1.85
2022-10-05T14:45:58.196Z,2.20
2022-10-05T14:48:28.773Z,2.08
2022-10-05T14:51:03.546Z,2.00
2022-10-05T14:53:40.003Z,2.53
2022-10-05T14:56:40.695Z,2.58
2022-10-05T14:59:26.242Z,2.58
2022-10-05T15:02:35.426Z,2.55
2022-10-05T15:05:25.667Z,2.30
2022-10-05T15:07:57.671Z,2.30
2022-10-05T15:10:31.687Z,2.45
2022-10-05T15:13:17.258Z,2.22
2022-10-05T15:15:55.697Z,2.22
2022-10-05T15:18:37.534Z,2.17
2022-10-05T15:21:23.910Z,2.42
2022-10-05T15:24:06.309Z,2.60
2022-10-05T15:26:39.270Z,2.45
2022-10-05T15:29:27.433Z,2.42
2022-10-05T15:32:08.969Z,2.50
2022-10-05T15:35:04.189Z,2.58
2022-10-05T15:37:43.275Z,3.40
2022-10-05T15:40:37.000Z,2.30
2022-10-05T15:43:16.247Z,2.80
2022-10-05T15:46:10.674Z,2.75
2022-10-05T15:48:56.199Z,2.92
2022-10-05T15:51:51.192Z,2.55
2022-10-05T15:54:43.559Z,2.65
2022-10-05T15:57:32.782Z,2.95
2022-10-05T16:00:12.549Z,2.88
2022-10-05T16:02:48.954Z,2.40
2022-10-05T16:05:16.761Z,3.03
2022-10-05T16:08:10.926Z,2.92
2022-10-05T16:10:44.224Z,2.90
2022-10-05T16:13:14.459Z,2.90
2022-10-05T16:15:50.213Z,2.92
2022-10-05T16:18:41.590Z,3.03
2022-10-05T16:21:22.831Z,3.10
2022-10-05T16:23:59.529Z,3.45
2022-10-05T16:26:26.661Z,3.50
2022-10-05T16:29:09.837Z,3.13
2022-10-05T16:31:54.535Z,3.28
2022-10-05T16:34:54.478Z,3.20
2022-10-05T16:37:38.012Z,3.10
2022-10-05T16:40:08.500Z,3.08
2022-10-05T16:42:47.816Z,3.03
2022-10-05T16:45:27.197Z,3.00
2022-10-05T16:48:17.812Z,3.00
2022-10-05T16:51:25.520Z,2.92
2022-10-05T16:54:20.347Z,3.03
2022-10-05T16:57:10.251Z,2.97
2022-10-05T16:59:55.739Z,3.28
2022-10-05T17:02:42.034Z,3.03
2022-10-05T17:05:41.649Z,3.00
2022-10-05T17:08:36.861Z,3.13
2022-10-05T17:11:41.289Z,3.30
2022-10-05T17:14:16.329Z,3.33
2022-10-05T17:17:05.557Z,3.30
2022-10-05T17:19:57.113Z,3.22
2022-10-05T17:22:29.562Z,3.72
2022-10-05T17:25:19.447Z,4.07
2022-10-05T17:28:24.573Z,3.40
2022-10-05T17:31:15.043Z,3.15
2022-10-05T17:34:00.741Z,3.72
2022-10-05T17:36:43.140Z,3.45
2022-10-05T17:39:15.177Z,3.35
2022-10-05T17:41:43.430Z,3.50
2022-10-05T17:44:14.169Z,3.90
2022-10-05T17:46:46.000Z,3.33
2022-10-05T17:49:37.989Z,3.20
2022-10-05T17:52:40.928Z,2.88
2022-10-05T17:55:34.307Z,2.95
2022-10-05T17:58:24.566Z,3.00
2022-10-05T18:01:25.418Z,3.53
2022-10-05T18:03:52.950Z,2.95
2022-10-05T18:06:26.647Z,3.47
2022-10-05T18:09:13.029Z,3.17
2022-10-05T18:11:48.210Z,2.80
2022-10-05T18:14:23.483Z,3.00
2022-10-05T18:17:11.398Z,2.53
2022-10-05T18:19:39.818Z,3.08
2022-10-05T18:22:28.337Z,2.97
2022-10-05T18:25:27.371Z,3.10
2022-10-05T18:28:29.059Z,3.42
2022-10-05T18:31:04.511Z,3.78
2022-10-05T18:33:49.461Z,3.20
2022-10-05T18:36:37.866Z,3.58
2022-10-05T18:39:27.147Z,3.70
2022-10-05T18:42:20.862Z,3.67
2022-10-05T18:45:02.045Z,3.95
2022-10-05T18:48:05.107Z,3.78
2022-10-05T18:50:44.562Z,4.03
2022-10-05T18:53:30.740Z,4.05
2022-10-05T18:56:13.998Z,5.32
2022-10-05T18:58:54.508Z,9.68
2022-10-05T19:01:47.255Z,9.00
2022-10-05T19:04:37.579Z,6.63
2022-10-05T19:07:21.801Z,4.32
2022-10-05T19:09:52.263Z,4.93
2022-10-05T19:12:41.739Z,4.80
2022-10-05T19:15:35.278Z,4.22
2022-10-05T19:18:33.570Z,4.38
2022-10-05T19:21:17.150Z,3.90
2022-10-05T19:24:11.937Z,4.18
2022-10-05T19:27:01.142Z,9.40
2022-10-05T19:29:34.470Z,6.10
2022-10-05T19:32:16.871Z,5.72
2022-10-05T19:34:54.337Z,6.82
2022-10-05T19:37:31.263Z,7.35
2022-10-05T19:40:11.527Z,7.00
2022-10-05T19:42:59.943Z,6.25
2022-10-05T19:45:29.641Z,5.10
2022-10-05T19:48:09.088Z,5.00
2022-10-05T19:50:40.794Z,4.60
2022-10-05T19:53:15.396Z,5.07
2022-10-05T19:55:45.898Z,5.68
2022-10-05T19:58:26.851Z,9.15
2022-10-05T20:01:03.460Z,7.53
2022-10-05T20:03:38.152Z,6.75
2022-10-05T20:06:08.490Z,6.30
2022-10-05T20:08:44.511Z,6.60
2022-10-05T20:11:23.435Z,6.28
2022-10-05T20:13:53.568Z,9.13
2022-10-05T20:16:50.617Z,8.60
2022-10-05T20:19:56.064Z,7.97
2022-10-05T20:22:26.664Z,10.32
2022-10-05T20:24:56.966Z,7.82
2022-10-05T20:27:44.870Z,6.90
2022-10-05T20:30:19.022Z,7.13
2022-10-05T20:32:50.965Z,8.25
2022-10-05T20:35:21.202Z,5.72
2022-10-05T20:37:50.333Z,6.05
2022-10-05T20:40:20.095Z,6.10
2022-10-05T20:42:48.435Z,6.05
2022-10-05T20:45:16.116Z,5.40
2022-10-05T20:47:43.499Z,5.47
2022-10-05T20:50:11.459Z,5.50
2022-10-05T20:52:38.997Z,5.63
2022-10-05T20:55:09.128Z,5.60
2022-10-05T20:57:41.961Z,4.93
2022-10-05T21:00:11.631Z,5.30
2022-10-05T21:02:39.703Z,5.63
2022-10-05T21:05:08.041Z,5.57
2022-10-05T21:07:35.681Z,5.50
2022-10-05T21:10:03.939Z,4.85
2022-10-05T21:12:34.117Z,5.60
2022-10-05T21:15:01.848Z,5.40
2022-10-05T21:17:31.807Z,5.00
2022-10-05T21:20:00.100Z,5.85
2022-10-05T21:22:27.607Z,5.25
2022-10-05T21:24:55.955Z,5.70
2022-10-05T21:27:23.943Z,4.97
2022-10-05T21:29:51.711Z,5.40
2022-10-05T21:32:19.069Z,5.07
2022-10-05T21:34:46.406Z,5.22
2022-10-05T21:37:15.582Z,5.55
2022-10-05T21:39:43.014Z,5.75
2022-10-05T21:42:11.012Z,5.43
2022-10-05T21:44:41.582Z,5.18
2022-10-05T21:47:09.653Z,5.38
2022-10-05T21:49:37.737Z,5.15
2022-10-05T21:52:05.676Z,10.48
2022-10-05T21:54:34.214Z,12.50
2022-10-05T21:57:02.974Z,12.18
2022-10-05T21:59:34.208Z,5.97
2022-10-05T22:02:02.495Z,6.68
2022-10-05T22:04:29.986Z,6.13
2022-10-05T22:06:57.782Z,5.90
2022-10-05T22:09:25.051Z,5.25
2022-10-05T22:11:52.399Z,4.80
2022-10-05T22:14:19.621Z,6.15
2022-10-05T22:16:47.445Z,5.38
2022-10-05T22:19:18.851Z,5.00
2022-10-05T22:21:46.087Z,5.00
2022-10-05T22:24:14.659Z,4.22
2022-10-05T22:26:45.509Z,3.92
2022-10-05T22:29:14.977Z,3.60
2022-10-05T22:31:42.640Z,4.25
2022-10-05T22:34:09.947Z,4.60
2022-10-05T22:36:37.751Z,4.40
2022-10-05T22:39:05.104Z,4.40
2022-10-05T22:41:32.395Z,3.78
2022-10-05T22:44:00.618Z,4.20
2022-10-05T22:46:28.120Z,4.20
2022-10-05T22:48:55.690Z,4.43
2022-10-05T22:51:22.951Z,4.00
2022-10-05T22:53:51.050Z,3.63
2022-10-05T22:56:18.784Z,3.88
2022-10-05T22:58:46.995Z,3.88
2022-10-05T23:01:17.254Z,4.07
2022-10-05T23:03:45.271Z,4.20
2022-10-05T23:06:16.223Z,4.20
2022-10-05T23:08:45.423Z,4.20
2022-10-05T23:11:18.104Z,4.60
2022-10-05T23:13:45.733Z,4.68
2022-10-05T23:16:19.776Z,4.70
2022-10-05T23:18:52.450Z,4.70
2022-10-05T23:21:22.006Z,4.32
2022-10-05T23:23:53.087Z,4.63
2022-10-05T23:26:22.919Z,4.70
2022-10-05T23:28:53.713Z,4.80
2022-10-05T23:31:24.038Z,4.97
2022-10-05T23:33:52.985Z,4.80
2022-10-05T23:36:31.583Z,5.00
2022-10-05T23:38:59.452Z,5.50
2022-10-05T23:41:26.932Z,5.15
2022-10-05T23:43:57.335Z,5.00
2022-10-05T23:46:25.044Z,5.28
2022-10-05T23:48:53.795Z,5.60
2022-10-05T23:51:21.610Z,5.50
2022-10-05T23:53:48.826Z,5.63
2022-10-05T23:56:16.135Z,5.93
2022-10-05T23:58:43.431Z,5.68
